sensor_id;sensor_type;location;lat;lon;timestamp;P1;durP1;ratioP1;P2;durP2;ratioP2
11439;SDS011;5776;51.814;4.510;2022-09-02T00:00:51;1.95;;;0.88;;
11439;SDS011;5776;51.814;4.510;2022-09-02T00:03:22;3.83;;;0.93;;
11439;SDS011;5776;51.814;4.510;2022-09-02T00:05:48;1.98;;;0.50;;
11439;SDS011;5776;51.814;4.510;2022-09-02T00:08:14;0.77;;;0.65;;
11439;SDS011;5776;51.814;4.510;2022-09-02T00:10:40;1.17;;;0.70;;
11439;SDS011;5776;51.814;4.510;2022-09-02T00:13:09;4.10;;;1.23;;
11439;SDS011;5776;51.814;4.510;2022-09-02T00:15:37;0.90;;;0.60;;
11439;SDS011;5776;51.814;4.510;2022-09-02T00:18:03;2.92;;;0.80;;
11439;SDS011;5776;51.814;4.510;2022-09-02T00:20:31;1.40;;;0.70;;
11439;SDS011;5776;51.814;4.510;2022-09-02T00:22:57;1.15;;;0.70;;
11439;SDS011;5776;51.814;4.510;2022-09-02T00:25:24;1.65;;;0.70;;
11439;SDS011;5776;51.814;4.510;2022-09-02T00:27:50;1.40;;;0.90;;
11439;SDS011;5776;51.814;4.510;2022-09-02T00:30:16;4.70;;;0.90;;
11439;SDS011;5776;51.814;4.510;2022-09-02T00:32:42;1.70;;;0.80;;
11439;SDS011;5776;51.814;4.510;2022-09-02T00:35:09;2.88;;;0.95;;
11439;SDS011;5776;51.814;4.510;2022-09-02T00:37:36;4.78;;;0.60;;
11439;SDS011;5776;51.814;4.510;2022-09-02T00:40:02;5.32;;;0.88;;
11439;SDS011;5776;51.814;4.510;2022-09-02T00:42:31;0.88;;;0.60;;
11439;SDS011;5776;51.814;4.510;2022-09-02T00:44:58;5.53;;;0.80;;
11439;SDS011;5776;51.814;4.510;2022-09-02T00:47:24;2.05;;;0.60;;
11439;SDS011;5776;51.814;4.510;2022-09-02T00:49:51;1.95;;;0.68;;
11439;SDS011;5776;51.814;4.510;2022-09-02T00:55:05;2.80;;;0.90;;
11439;SDS011;5776;51.814;4.510;2022-09-02T00:57:38;2.70;;;0.80;;
11439;SDS011;5776;51.814;4.510;2022-09-02T01:00:13;2.95;;;1.05;;
11439;SDS011;5776;51.814;4.510;2022-09-02T01:02:50;1.73;;;0.77;;
11439;SDS011;5776;51.814;4.510;2022-09-02T01:05:19;1.98;;;0.90;;
11439;SDS011;5776;51.814;4.510;2022-09-02T01:07:48;2.03;;;0.77;;
11439;SDS011;5776;51.814;4.510;2022-09-02T01:10:18;1.20;;;0.70;;
11439;SDS011;5776;51.814;4.510;2022-09-02T01:12:46;1.33;;;0.90;;
11439;SDS011;5776;51.814;4.510;2022-09-02T01:15:14;4.10;;;0.70;;
11439;SDS011;5776;51.814;4.510;2022-09-02T01:17:42;3.10;;;1.08;;
11439;SDS011;5776;51.814;4.510;2022-09-02T01:20:14;4.82;;;0.75;;
11439;SDS011;5776;51.814;4.510;2022-09-02T01:22:43;3.80;;;0.80;;
11439;SDS011;5776;51.814;4.510;2022-09-02T01:25:11;1.02;;;0.60;;
11439;SDS011;5776;51.814;4.510;2022-09-02T01:27:41;3.30;;;1.00;;
11439;SDS011;5776;51.814;4.510;2022-09-02T01:30:09;1.50;;;0.40;;
11439;SDS011;5776;51.814;4.510;2022-09-02T01:32:41;1.85;;;0.70;;
11439;SDS011;5776;51.814;4.510;2022-09-02T01:35:07;4.80;;;0.77;;
11439;SDS011;5776;51.814;4.510;2022-09-02T01:37:33;4.78;;;0.80;;
11439;SDS011;5776;51.814;4.510;2022-09-02T01:40:00;2.75;;;1.00;;
11439;SDS011;5776;51.814;4.510;2022-09-02T01:42:26;1.63;;;0.70;;
11439;SDS011;5776;51.814;4.510;2022-09-02T01:44:51;5.55;;;1.08;;
11439;SDS011;5776;51.814;4.510;2022-09-02T01:47:23;1.90;;;0.82;;
11439;SDS011;5776;51.814;4.510;2022-09-02T01:49:51;3.67;;;0.90;;
11439;SDS011;5776;51.814;4.510;2022-09-02T01:52:17;2.47;;;0.90;;
11439;SDS011;5776;51.814;4.510;2022-09-02T01:54:44;2.38;;;0.75;;
11439;SDS011;5776;51.814;4.510;2022-09-02T01:57:11;3.78;;;0.70;;
11439;SDS011;5776;51.814;4.510;2022-09-02T01:59:37;2.05;;;0.70;;
11439;SDS011;5776;51.814;4.510;2022-09-02T02:02:04;1.88;;;0.95;;
11439;SDS011;5776;51.814;4.510;2022-09-02T02:04:30;2.05;;;1.17;;
11439;SDS011;5776;51.814;4.510;2022-09-02T02:06:57;4.93;;;1.48;;
11439;SDS011;5776;51.814;4.510;2022-09-02T02:09:24;4.22;;;0.90;;
11439;SDS011;5776;51.814;4.510;2022-09-02T02:11:50;1.13;;;0.70;;
11439;SDS011;5776;51.814;4.510;2022-09-02T02:14:16;1.35;;;0.70;;
11439;SDS011;5776;51.814;4.510;2022-09-02T02:16:42;2.10;;;0.70;;
11439;SDS011;5776;51.814;4.510;2022-09-02T02:19:08;1.40;;;0.70;;
11439;SDS011;5776;51.814;4.510;2022-09-02T02:21:34;1.23;;;0.55;;
11439;SDS011;5776;51.814;4.510;2022-09-02T02:24:00;1.30;;;0.70;;
11439;SDS011;5776;51.814;4.510;2022-09-02T02:26:26;5.97;;;0.85;;
11439;SDS011;5776;51.814;4.510;2022-09-02T02:28:53;1.23;;;0.60;;
11439;SDS011;5776;51.814;4.510;2022-09-02T02:31:19;2.35;;;1.10;;
11439;SDS011;5776;51.814;4.510;2022-09-02T02:33:45;2.08;;;0.80;;
11439;SDS011;5776;51.814;4.510;2022-09-02T02:36:12;2.08;;;0.90;;
11439;SDS011;5776;51.814;4.510;2022-09-02T02:38:38;2.28;;;0.88;;
11439;SDS011;5776;51.814;4.510;2022-09-02T02:41:05;1.52;;;0.60;;
11439;SDS011;5776;51.814;4.510;2022-09-02T02:43:33;3.35;;;0.65;;
11439;SDS011;5776;51.814;4.510;2022-09-02T02:45:59;1.88;;;0.60;;
11439;SDS011;5776;51.814;4.510;2022-09-02T02:48:25;2.05;;;0.85;;
11439;SDS011;5776;51.814;4.510;2022-09-02T02:50:51;1.15;;;0.68;;
11439;SDS011;5776;51.814;4.510;2022-09-02T02:53:17;2.03;;;0.93;;
11439;SDS011;5776;51.814;4.510;2022-09-02T02:55:43;3.97;;;1.00;;
11439;SDS011;5776;51.814;4.510;2022-09-02T02:58:10;5.18;;;1.00;;
11439;SDS011;5776;51.814;4.510;2022-09-02T03:00:36;3.05;;;0.65;;
11439;SDS011;5776;51.814;4.510;2022-09-02T03:03:04;3.70;;;1.10;;
11439;SDS011;5776;51.814;4.510;2022-09-02T03:05:32;1.50;;;0.90;;
11439;SDS011;5776;51.814;4.510;2022-09-02T03:08:00;3.53;;;0.77;;
11439;SDS011;5776;51.814;4.510;2022-09-02T03:10:27;2.08;;;1.00;;
11439;SDS011;5776;51.814;4.510;2022-09-02T03:12:55;1.58;;;0.80;;
11439;SDS011;5776;51.814;4.510;2022-09-02T03:15:22;1.85;;;0.80;;
11439;SDS011;5776;51.814;4.510;2022-09-02T03:17:48;3.88;;;0.80;;
11439;SDS011;5776;51.814;4.510;2022-09-02T03:20:15;3.22;;;0.88;;
11439;SDS011;5776;51.814;4.510;2022-09-02T03:22:46;1.35;;;0.90;;
11439;SDS011;5776;51.814;4.510;2022-09-02T03:25:14;5.63;;;1.27;;
11439;SDS011;5776;51.814;4.510;2022-09-02T03:27:43;3.05;;;0.70;;
11439;SDS011;5776;51.814;4.510;2022-09-02T03:30:13;2.33;;;0.85;;
11439;SDS011;5776;51.814;4.510;2022-09-02T03:32:41;1.48;;;1.15;;
11439;SDS011;5776;51.814;4.510;2022-09-02T03:35:08;3.92;;;1.00;;
11439;SDS011;5776;51.814;4.510;2022-09-02T03:37:40;3.45;;;1.00;;
11439;SDS011;5776;51.814;4.510;2022-09-02T03:40:10;3.70;;;1.08;;
11439;SDS011;5776;51.814;4.510;2022-09-02T03:42:38;3.13;;;0.82;;
11439;SDS011;5776;51.814;4.510;2022-09-02T03:45:05;2.08;;;1.20;;
11439;SDS011;5776;51.814;4.510;2022-09-02T03:47:35;1.75;;;0.75;;
11439;SDS011;5776;51.814;4.510;2022-09-02T03:50:01;5.93;;;0.95;;
11439;SDS011;5776;51.814;4.510;2022-09-02T03:52:28;2.25;;;1.15;;
11439;SDS011;5776;51.814;4.510;2022-09-02T03:54:54;1.80;;;1.00;;
11439;SDS011;5776;51.814;4.510;2022-09-02T03:57:20;2.38;;;1.20;;
11439;SDS011;5776;51.814;4.510;2022-09-02T03:59:50;3.45;;;0.93;;
11439;SDS011;5776;51.814;4.510;2022-09-02T04:02:16;2.30;;;0.82;;
11439;SDS011;5776;51.814;4.510;2022-09-02T04:04:42;1.98;;;0.90;;
11439;SDS011;5776;51.814;4.510;2022-09-02T04:07:09;2.25;;;0.90;;
11439;SDS011;5776;51.814;4.510;2022-09-02T04:09:35;2.30;;;1.30;;
11439;SDS011;5776;51.814;4.510;2022-09-02T04:12:02;1.17;;;0.70;;
11439;SDS011;5776;51.814;4.510;2022-09-02T04:14:28;9.30;;;1.40;;
11439;SDS011;5776;51.814;4.510;2022-09-02T04:16:54;4.78;;;0.80;;
11439;SDS011;5776;51.814;4.510;2022-09-02T04:19:20;2.17;;;1.10;;
11439;SDS011;5776;51.814;4.510;2022-09-02T04:21:46;1.63;;;1.02;;
11439;SDS011;5776;51.814;4.510;2022-09-02T04:24:12;5.75;;;1.17;;
11439;SDS011;5776;51.814;4.510;2022-09-02T04:26:38;4.15;;;0.90;;
11439;SDS011;5776;51.814;4.510;2022-09-02T04:29:04;4.93;;;0.90;;
11439;SDS011;5776;51.814;4.510;2022-09-02T04:31:31;1.85;;;0.80;;
11439;SDS011;5776;51.814;4.510;2022-09-02T04:33:57;3.35;;;1.13;;
11439;SDS011;5776;51.814;4.510;2022-09-02T04:36:24;2.60;;;1.10;;
11439;SDS011;5776;51.814;4.510;2022-09-02T04:38:51;3.15;;;0.80;;
11439;SDS011;5776;51.814;4.510;2022-09-02T04:41:20;1.58;;;0.95;;
11439;SDS011;5776;51.814;4.510;2022-09-02T04:43:48;4.32;;;0.95;;
11439;SDS011;5776;51.814;4.510;2022-09-02T04:46:19;1.35;;;0.70;;
11439;SDS011;5776;51.814;4.510;2022-09-02T04:48:45;3.33;;;1.10;;
11439;SDS011;5776;51.814;4.510;2022-09-02T04:51:14;2.38;;;1.00;;
11439;SDS011;5776;51.814;4.510;2022-09-02T04:53:42;4.18;;;1.20;;
11439;SDS011;5776;51.814;4.510;2022-09-02T04:56:11;6.75;;;1.42;;
11439;SDS011;5776;51.814;4.510;2022-09-02T04:58:39;3.47;;;0.95;;
11439;SDS011;5776;51.814;4.510;2022-09-02T05:01:07;5.38;;;1.10;;
11439;SDS011;5776;51.814;4.510;2022-09-02T05:03:35;1.80;;;1.02;;
11439;SDS011;5776;51.814;4.510;2022-09-02T05:06:06;4.22;;;0.80;;
11439;SDS011;5776;51.814;4.510;2022-09-02T05:08:34;3.17;;;1.00;;
11439;SDS011;5776;51.814;4.510;2022-09-02T05:11:07;4.97;;;1.45;;
11439;SDS011;5776;51.814;4.510;2022-09-02T05:13:38;3.65;;;1.13;;
11439;SDS011;5776;51.814;4.510;2022-09-02T05:16:05;4.63;;;1.30;;
11439;SDS011;5776;51.814;4.510;2022-09-02T05:18:32;4.95;;;1.10;;
11439;SDS011;5776;51.814;4.510;2022-09-02T05:20:58;2.80;;;0.93;;
11439;SDS011;5776;51.814;4.510;2022-09-02T05:23:24;3.22;;;0.90;;
11439;SDS011;5776;51.814;4.510;2022-09-02T05:25:50;4.22;;;0.73;;
11439;SDS011;5776;51.814;4.510;2022-09-02T05:28:16;5.30;;;1.02;;
11439;SDS011;5776;51.814;4.510;2022-09-02T05:30:42;5.00;;;1.00;;
11439;SDS011;5776;51.814;4.510;2022-09-02T05:33:09;17.02;;;2.00;;
11439;SDS011;5776;51.814;4.510;2022-09-02T05:35:40;6.43;;;1.53;;
11439;SDS011;5776;51.814;4.510;2022-09-02T05:38:06;2.63;;;0.73;;
11439;SDS011;5776;51.814;4.510;2022-09-02T05:40:33;3.72;;;1.15;;
11439;SDS011;5776;51.814;4.510;2022-09-02T05:43:00;5.82;;;1.27;;
11439;SDS011;5776;51.814;4.510;2022-09-02T05:45:26;6.72;;;1.10;;
11439;SDS011;5776;51.814;4.510;2022-09-02T05:47:52;5.10;;;1.00;;
11439;SDS011;5776;51.814;4.510;2022-09-02T05:50:18;5.25;;;1.13;;
11439;SDS011;5776;51.814;4.510;2022-09-02T05:52:45;4.78;;;1.23;;
11439;SDS011;5776;51.814;4.510;2022-09-02T05:55:16;24.70;;;2.78;;
11439;SDS011;5776;51.814;4.510;2022-09-02T05:57:42;4.35;;;1.58;;
11439;SDS011;5776;51.814;4.510;2022-09-02T06:00:10;5.13;;;1.40;;
11439;SDS011;5776;51.814;4.510;2022-09-02T06:02:37;5.65;;;1.00;;
11439;SDS011;5776;51.814;4.510;2022-09-02T06:05:04;6.13;;;1.40;;
11439;SDS011;5776;51.814;4.510;2022-09-02T06:07:30;2.85;;;1.10;;
11439;SDS011;5776;51.814;4.510;2022-09-02T06:09:56;10.68;;;1.75;;
11439;SDS011;5776;51.814;4.510;2022-09-02T06:12:22;3.38;;;0.98;;
11439;SDS011;5776;51.814;4.510;2022-09-02T06:14:49;3.63;;;1.45;;
11439;SDS011;5776;51.814;4.510;2022-09-02T06:17:15;6.47;;;1.23;;
11439;SDS011;5776;51.814;4.510;2022-09-02T06:19:41;4.97;;;1.02;;
11439;SDS011;5776;51.814;4.510;2022-09-02T06:22:07;9.00;;;1.70;;
11439;SDS011;5776;51.814;4.510;2022-09-02T06:24:34;4.30;;;1.50;;
11439;SDS011;5776;51.814;4.510;2022-09-02T06:27:00;3.63;;;1.63;;
11439;SDS011;5776;51.814;4.510;2022-09-02T06:29:26;4.15;;;1.35;;
11439;SDS011;5776;51.814;4.510;2022-09-02T06:31:52;2.60;;;1.65;;
11439;SDS011;5776;51.814;4.510;2022-09-02T06:34:20;4.55;;;1.42;;
11439;SDS011;5776;51.814;4.510;2022-09-02T06:36:48;3.47;;;1.67;;
11439;SDS011;5776;51.814;4.510;2022-09-02T06:39:16;2.42;;;1.27;;
11439;SDS011;5776;51.814;4.510;2022-09-02T06:41:45;11.27;;;1.77;;
11439;SDS011;5776;51.814;4.510;2022-09-02T06:44:12;4.90;;;1.75;;
11439;SDS011;5776;51.814;4.510;2022-09-02T06:46:41;11.93;;;2.08;;
11439;SDS011;5776;51.814;4.510;2022-09-02T06:49:12;18.23;;;2.58;;
11439;SDS011;5776;51.814;4.510;2022-09-02T06:51:41;11.15;;;2.35;;
11439;SDS011;5776;51.814;4.510;2022-09-02T06:54:10;2.78;;;1.88;;
11439;SDS011;5776;51.814;4.510;2022-09-02T06:56:38;23.35;;;2.92;;
11439;SDS011;5776;51.814;4.510;2022-09-02T06:59:05;5.30;;;2.40;;
11439;SDS011;5776;51.814;4.510;2022-09-02T07:01:32;5.82;;;2.28;;
11439;SDS011;5776;51.814;4.510;2022-09-02T07:03:58;5.30;;;2.08;;
11439;SDS011;5776;51.814;4.510;2022-09-02T07:06:44;7.90;;;2.47;;
11439;SDS011;5776;51.814;4.510;2022-09-02T07:09:14;4.68;;;2.35;;
11439;SDS011;5776;51.814;4.510;2022-09-02T07:11:42;8.57;;;2.45;;
11439;SDS011;5776;51.814;4.510;2022-09-02T07:14:21;5.97;;;2.50;;
11439;SDS011;5776;51.814;4.510;2022-09-02T07:16:49;6.30;;;2.20;;
11439;SDS011;5776;51.814;4.510;2022-09-02T07:19:17;9.82;;;2.78;;
11439;SDS011;5776;51.814;4.510;2022-09-02T07:21:44;6.72;;;2.60;;
11439;SDS011;5776;51.814;4.510;2022-09-02T07:24:11;7.85;;;2.20;;
11439;SDS011;5776;51.814;4.510;2022-09-02T07:26:38;7.57;;;2.40;;
11439;SDS011;5776;51.814;4.510;2022-09-02T07:29:05;3.60;;;1.85;;
11439;SDS011;5776;51.814;4.510;2022-09-02T07:31:33;11.02;;;2.50;;
11439;SDS011;5776;51.814;4.510;2022-09-02T07:34:04;10.13;;;3.33;;
11439;SDS011;5776;51.814;4.510;2022-09-02T07:36:31;4.30;;;1.90;;
11439;SDS011;5776;51.814;4.510;2022-09-02T07:38:59;8.50;;;2.53;;
11439;SDS011;5776;51.814;4.510;2022-09-02T07:41:26;6.40;;;2.60;;
11439;SDS011;5776;51.814;4.510;2022-09-02T07:43:52;8.70;;;2.60;;
11439;SDS011;5776;51.814;4.510;2022-09-02T07:46:18;10.23;;;2.97;;
11439;SDS011;5776;51.814;4.510;2022-09-02T07:48:44;13.00;;;2.22;;
11439;SDS011;5776;51.814;4.510;2022-09-02T07:51:11;7.25;;;2.80;;
11439;SDS011;5776;51.814;4.510;2022-09-02T07:53:37;3.83;;;2.42;;
11439;SDS011;5776;51.814;4.510;2022-09-02T07:56:03;5.60;;;2.85;;
11439;SDS011;5776;51.814;4.510;2022-09-02T07:58:29;10.73;;;3.22;;
11439;SDS011;5776;51.814;4.510;2022-09-02T08:00:55;9.07;;;2.85;;
11439;SDS011;5776;51.814;4.510;2022-09-02T08:03:22;6.05;;;3.05;;
11439;SDS011;5776;51.814;4.510;2022-09-02T08:05:49;5.38;;;2.90;;
11439;SDS011;5776;51.814;4.510;2022-09-02T08:08:16;15.93;;;3.25;;
11439;SDS011;5776;51.814;4.510;2022-09-02T08:10:45;6.07;;;3.03;;
11439;SDS011;5776;51.814;4.510;2022-09-02T08:13:15;3.83;;;2.40;;
11439;SDS011;5776;51.814;4.510;2022-09-02T08:15:42;7.13;;;2.75;;
11439;SDS011;5776;51.814;4.510;2022-09-02T08:18:09;6.07;;;2.67;;
11439;SDS011;5776;51.814;4.510;2022-09-02T08:20:36;4.78;;;2.70;;
11439;SDS011;5776;51.814;4.510;2022-09-02T08:23:03;5.40;;;3.15;;
11439;SDS011;5776;51.814;4.510;2022-09-02T08:25:31;7.45;;;3.35;;
11439;SDS011;5776;51.814;4.510;2022-09-02T08:27:58;8.75;;;3.10;;
11439;SDS011;5776;51.814;4.510;2022-09-02T08:30:24;10.32;;;2.80;;
11439;SDS011;5776;51.814;4.510;2022-09-02T08:32:50;8.00;;;2.78;;
11439;SDS011;5776;51.814;4.510;2022-09-02T08:35:17;10.98;;;3.20;;
11439;SDS011;5776;51.814;4.510;2022-09-02T08:37:43;13.15;;;3.33;;
11439;SDS011;5776;51.814;4.510;2022-09-02T08:40:13;8.85;;;3.15;;
11439;SDS011;5776;51.814;4.510;2022-09-02T08:50:46;19.92;;;3.85;;
11439;SDS011;5776;51.814;4.510;2022-09-02T08:56:07;5.25;;;3.60;;
11439;SDS011;5776;51.814;4.510;2022-09-02T08:58:38;12.63;;;3.15;;
11439;SDS011;5776;51.814;4.510;2022-09-02T09:01:08;8.27;;;3.00;;
11439;SDS011;5776;51.814;4.510;2022-09-02T09:06:22;5.82;;;2.85;;
11439;SDS011;5776;51.814;4.510;2022-09-02T09:09:03;8.52;;;2.90;;
11439;SDS011;5776;51.814;4.510;2022-09-02T09:11:57;6.88;;;2.95;;
11439;SDS011;5776;51.814;4.510;2022-09-02T09:14:31;8.57;;;3.10;;
11439;SDS011;5776;51.814;4.510;2022-09-02T09:19:51;6.90;;;3.13;;
11439;SDS011;5776;51.814;4.510;2022-09-02T09:22:20;5.72;;;3.17;;
11439;SDS011;5776;51.814;4.510;2022-09-02T09:24:51;5.45;;;2.90;;
11439;SDS011;5776;51.814;4.510;2022-09-02T09:27:18;3.85;;;2.80;;
11439;SDS011;5776;51.814;4.510;2022-09-02T09:29:47;9.57;;;3.25;;
11439;SDS011;5776;51.814;4.510;2022-09-02T09:32:25;6.38;;;3.30;;
11439;SDS011;5776;51.814;4.510;2022-09-02T09:34:56;5.38;;;3.08;;
11439;SDS011;5776;51.814;4.510;2022-09-02T09:37:37;6.28;;;3.45;;
11439;SDS011;5776;51.814;4.510;2022-09-02T09:45:25;7.97;;;2.95;;
11439;SDS011;5776;51.814;4.510;2022-09-02T09:48:26;8.45;;;3.00;;
11439;SDS011;5776;51.814;4.510;2022-09-02T09:53:23;7.15;;;3.53;;
11439;SDS011;5776;51.814;4.510;2022-09-02T09:55:52;6.60;;;3.45;;
11439;SDS011;5776;51.814;4.510;2022-09-02T09:58:21;11.40;;;3.72;;
11439;SDS011;5776;51.814;4.510;2022-09-02T10:00:50;7.70;;;3.05;;
11439;SDS011;5776;51.814;4.510;2022-09-02T10:03:22;12.95;;;3.67;;
11439;SDS011;5776;51.814;4.510;2022-09-02T10:05:54;7.03;;;3.00;;
11439;SDS011;5776;51.814;4.510;2022-09-02T10:08:23;7.18;;;3.45;;
11439;SDS011;5776;51.814;4.510;2022-09-02T10:13:21;9.45;;;2.85;;
11439;SDS011;5776;51.814;4.510;2022-09-02T10:26:57;6.90;;;2.90;;
11439;SDS011;5776;51.814;4.510;2022-09-02T10:29:37;9.30;;;2.75;;
11439;SDS011;5776;51.814;4.510;2022-09-02T10:32:24;4.47;;;2.50;;
11439;SDS011;5776;51.814;4.510;2022-09-02T10:40:42;4.70;;;2.60;;
11439;SDS011;5776;51.814;4.510;2022-09-02T10:45:59;7.00;;;3.20;;
11439;SDS011;5776;51.814;4.510;2022-09-02T10:56:04;10.15;;;2.58;;
11439;SDS011;5776;51.814;4.510;2022-09-02T11:01:01;6.07;;;2.63;;
11439;SDS011;5776;51.814;4.510;2022-09-02T11:06:13;9.07;;;4.28;;
11439;SDS011;5776;51.814;4.510;2022-09-02T11:08:49;20.08;;;4.18;;
11439;SDS011;5776;51.814;4.510;2022-09-02T11:11:30;7.63;;;3.22;;
11439;SDS011;5776;51.814;4.510;2022-09-02T11:19:50;7.47;;;3.17;;
11439;SDS011;5776;51.814;4.510;2022-09-02T11:22:39;12.65;;;3.58;;
11439;SDS011;5776;51.814;4.510;2022-09-02T11:25:23;6.57;;;3.13;;
11439;SDS011;5776;51.814;4.510;2022-09-02T11:30:34;7.85;;;3.17;;
11439;SDS011;5776;51.814;4.510;2022-09-02T11:33:16;6.53;;;2.70;;
11439;SDS011;5776;51.814;4.510;2022-09-02T11:35:57;5.95;;;2.42;;
11439;SDS011;5776;51.814;4.510;2022-09-02T11:53:04;8.40;;;2.67;;
11439;SDS011;5776;51.814;4.510;2022-09-02T11:55:40;8.45;;;3.10;;
11439;SDS011;5776;51.814;4.510;2022-09-02T11:58:10;5.82;;;2.90;;
11439;SDS011;5776;51.814;4.510;2022-09-02T12:03:24;24.08;;;4.45;;
11439;SDS011;5776;51.814;4.510;2022-09-02T12:11:02;8.45;;;3.17;;
11439;SDS011;5776;51.814;4.510;2022-09-02T12:18:37;9.88;;;2.58;;
11439;SDS011;5776;51.814;4.510;2022-09-02T12:21:07;12.32;;;3.45;;
11439;SDS011;5776;51.814;4.510;2022-09-02T12:24:47;6.28;;;2.72;;
11439;SDS011;5776;51.814;4.510;2022-09-02T12:36:46;9.60;;;2.67;;
11439;SDS011;5776;51.814;4.510;2022-09-02T12:55:07;3.75;;;2.08;;
11439;SDS011;5776;51.814;4.510;2022-09-02T12:57:37;3.25;;;1.95;;
11439;SDS011;5776;51.814;4.510;2022-09-02T13:00:05;4.97;;;2.25;;
11439;SDS011;5776;51.814;4.510;2022-09-02T13:02:43;3.40;;;2.03;;
11439;SDS011;5776;51.814;4.510;2022-09-02T13:05:30;7.97;;;2.40;;
11439;SDS011;5776;51.814;4.510;2022-09-02T13:08:31;4.25;;;1.95;;
11439;SDS011;5776;51.814;4.510;2022-09-02T13:16:59;6.95;;;2.10;;
11439;SDS011;5776;51.814;4.510;2022-09-02T13:31:10;4.57;;;1.75;;
11439;SDS011;5776;51.814;4.510;2022-09-02T13:33:40;8.50;;;2.50;;
11439;SDS011;5776;51.814;4.510;2022-09-02T13:36:08;3.92;;;2.20;;
11439;SDS011;5776;51.814;4.510;2022-09-02T13:38:34;4.90;;;2.03;;
11439;SDS011;5776;51.814;4.510;2022-09-02T13:41:00;3.17;;;1.40;;
11439;SDS011;5776;51.814;4.510;2022-09-02T13:43:26;5.38;;;1.70;;
11439;SDS011;5776;51.814;4.510;2022-09-02T13:45:59;2.08;;;1.50;;
11439;SDS011;5776;51.814;4.510;2022-09-02T13:48:30;3.85;;;2.15;;
11439;SDS011;5776;51.814;4.510;2022-09-02T13:51:12;7.40;;;2.58;;
11439;SDS011;5776;51.814;4.510;2022-09-02T13:53:43;4.18;;;2.20;;
11439;SDS011;5776;51.814;4.510;2022-09-02T13:56:12;5.93;;;2.33;;
11439;SDS011;5776;51.814;4.510;2022-09-02T13:58:41;3.65;;;2.13;;
11439;SDS011;5776;51.814;4.510;2022-09-02T14:01:19;5.65;;;1.80;;
11439;SDS011;5776;51.814;4.510;2022-09-02T14:04:02;5.05;;;2.25;;
11439;SDS011;5776;51.814;4.510;2022-09-02T14:06:36;3.83;;;2.25;;
11439;SDS011;5776;51.814;4.510;2022-09-02T14:09:10;7.28;;;2.03;;
11439;SDS011;5776;51.814;4.510;2022-09-02T14:11:45;5.82;;;2.05;;
11439;SDS011;5776;51.814;4.510;2022-09-02T14:14:13;4.18;;;1.80;;
11439;SDS011;5776;51.814;4.510;2022-09-02T14:16:41;3.53;;;1.83;;
11439;SDS011;5776;51.814;4.510;2022-09-02T14:19:08;11.50;;;2.33;;
11439;SDS011;5776;51.814;4.510;2022-09-02T14:21:35;2.95;;;1.70;;
11439;SDS011;5776;51.814;4.510;2022-09-02T14:24:10;7.15;;;1.95;;
11439;SDS011;5776;51.814;4.510;2022-09-02T14:26:41;6.28;;;1.90;;
11439;SDS011;5776;51.814;4.510;2022-09-02T14:29:11;5.30;;;1.95;;
11439;SDS011;5776;51.814;4.510;2022-09-02T14:31:39;4.85;;;1.77;;
11439;SDS011;5776;51.814;4.510;2022-09-02T14:36:56;6.05;;;1.73;;
11439;SDS011;5776;51.814;4.510;2022-09-02T14:39:22;4.63;;;1.75;;
11439;SDS011;5776;51.814;4.510;2022-09-02T14:41:51;5.95;;;1.58;;
11439;SDS011;5776;51.814;4.510;2022-09-02T14:44:23;3.90;;;2.47;;
11439;SDS011;5776;51.814;4.510;2022-09-02T14:46:57;6.82;;;2.47;;
11439;SDS011;5776;51.814;4.510;2022-09-02T14:49:27;5.53;;;1.90;;
11439;SDS011;5776;51.814;4.510;2022-09-02T14:51:56;3.70;;;1.80;;
11439;SDS011;5776;51.814;4.510;2022-09-02T14:57:05;3.38;;;1.73;;
11439;SDS011;5776;51.814;4.510;2022-09-02T14:59:44;6.95;;;2.25;;
11439;SDS011;5776;51.814;4.510;2022-09-02T15:04:55;3.90;;;1.88;;
11439;SDS011;5776;51.814;4.510;2022-09-02T15:07:23;3.40;;;1.73;;
11439;SDS011;5776;51.814;4.510;2022-09-02T15:09:50;4.82;;;1.70;;
11439;SDS011;5776;51.814;4.510;2022-09-02T15:12:20;2.63;;;1.42;;
11439;SDS011;5776;51.814;4.510;2022-09-02T15:14:51;4.18;;;1.60;;
11439;SDS011;5776;51.814;4.510;2022-09-02T15:17:18;6.32;;;1.70;;
11439;SDS011;5776;51.814;4.510;2022-09-02T15:19:44;4.28;;;1.65;;
11439;SDS011;5776;51.814;4.510;2022-09-02T15:22:11;4.05;;;1.65;;
11439;SDS011;5776;51.814;4.510;2022-09-02T15:24:37;6.10;;;1.85;;
11439;SDS011;5776;51.814;4.510;2022-09-02T15:27:03;6.43;;;1.60;;
11439;SDS011;5776;51.814;4.510;2022-09-02T15:29:29;5.65;;;1.88;;
11439;SDS011;5776;51.814;4.510;2022-09-02T15:31:56;8.00;;;1.60;;
11439;SDS011;5776;51.814;4.510;2022-09-02T15:34:22;2.97;;;1.60;;
11439;SDS011;5776;51.814;4.510;2022-09-02T15:36:48;4.38;;;1.88;;
11439;SDS011;5776;51.814;4.510;2022-09-02T15:39:15;5.80;;;1.80;;
11439;SDS011;5776;51.814;4.510;2022-09-02T15:41:43;3.72;;;1.63;;
11439;SDS011;5776;51.814;4.510;2022-09-02T15:44:09;3.08;;;1.60;;
11439;SDS011;5776;51.814;4.510;2022-09-02T15:46:36;9.93;;;1.90;;
11439;SDS011;5776;51.814;4.510;2022-09-02T15:49:06;4.55;;;2.05;;
11439;SDS011;5776;51.814;4.510;2022-09-02T15:51:34;7.13;;;1.92;;
11439;SDS011;5776;51.814;4.510;2022-09-02T15:54:03;8.38;;;1.92;;
11439;SDS011;5776;51.814;4.510;2022-09-02T15:56:32;4.05;;;1.80;;
11439;SDS011;5776;51.814;4.510;2022-09-02T15:59:03;2.47;;;1.98;;
11439;SDS011;5776;51.814;4.510;2022-09-02T16:01:34;6.47;;;1.92;;
11439;SDS011;5776;51.814;4.510;2022-09-02T16:04:03;7.47;;;2.10;;
11439;SDS011;5776;51.814;4.510;2022-09-02T16:06:41;4.38;;;1.50;;
11439;SDS011;5776;51.814;4.510;2022-09-02T16:09:28;114.95;;;7.97;;
11439;SDS011;5776;51.814;4.510;2022-09-02T16:11:54;5.82;;;1.55;;
11439;SDS011;5776;51.814;4.510;2022-09-02T16:14:21;2.83;;;1.58;;
11439;SDS011;5776;51.814;4.510;2022-09-02T16:16:48;3.35;;;1.60;;
11439;SDS011;5776;51.814;4.510;2022-09-02T16:19:17;2.58;;;1.60;;
11439;SDS011;5776;51.814;4.510;2022-09-02T16:21:48;5.50;;;1.67;;
11439;SDS011;5776;51.814;4.510;2022-09-02T16:24:14;3.40;;;1.55;;
11439;SDS011;5776;51.814;4.510;2022-09-02T16:26:40;6.30;;;1.55;;
11439;SDS011;5776;51.814;4.510;2022-09-02T16:29:07;5.85;;;1.52;;
11439;SDS011;5776;51.814;4.510;2022-09-02T16:31:36;2.20;;;1.33;;
11439;SDS011;5776;51.814;4.510;2022-09-02T16:34:04;5.55;;;1.48;;
11439;SDS011;5776;51.814;4.510;2022-09-02T16:36:33;2.33;;;1.40;;
11439;SDS011;5776;51.814;4.510;2022-09-02T16:39:01;2.30;;;1.20;;
11439;SDS011;5776;51.814;4.510;2022-09-02T16:43:59;4.07;;;1.65;;
11439;SDS011;5776;51.814;4.510;2022-09-02T16:46:27;4.20;;;1.52;;
11439;SDS011;5776;51.814;4.510;2022-09-02T16:48:54;4.63;;;1.63;;
11439;SDS011;5776;51.814;4.510;2022-09-02T16:51:20;3.42;;;1.85;;
11439;SDS011;5776;51.814;4.510;2022-09-02T16:53:52;2.83;;;1.30;;
11439;SDS011;5776;51.814;4.510;2022-09-02T16:56:22;3.13;;;1.58;;
11439;SDS011;5776;51.814;4.510;2022-09-02T16:58:49;4.63;;;1.52;;
11439;SDS011;5776;51.814;4.510;2022-09-02T17:01:15;3.13;;;1.65;;
11439;SDS011;5776;51.814;4.510;2022-09-02T17:03:41;5.00;;;1.60;;
11439;SDS011;5776;51.814;4.510;2022-09-02T17:06:08;4.03;;;1.20;;
11439;SDS011;5776;51.814;4.510;2022-09-02T17:08:34;2.40;;;1.20;;
11439;SDS011;5776;51.814;4.510;2022-09-02T17:11:09;3.00;;;1.42;;
11439;SDS011;5776;51.814;4.510;2022-09-02T17:13:47;2.33;;;1.45;;
11439;SDS011;5776;51.814;4.510;2022-09-02T17:16:19;2.60;;;1.30;;
11439;SDS011;5776;51.814;4.510;2022-09-02T17:18:48;5.45;;;1.52;;
11439;SDS011;5776;51.814;4.510;2022-09-02T17:21:18;2.97;;;1.40;;
11439;SDS011;5776;51.814;4.510;2022-09-02T17:23:45;4.13;;;1.35;;
11439;SDS011;5776;51.814;4.510;2022-09-02T17:26:11;4.95;;;1.42;;
11439;SDS011;5776;51.814;4.510;2022-09-02T17:28:39;4.45;;;1.92;;
11439;SDS011;5776;51.814;4.510;2022-09-02T17:31:20;6.05;;;1.50;;
11439;SDS011;5776;51.814;4.510;2022-09-02T17:33:50;2.55;;;1.10;;
11439;SDS011;5776;51.814;4.510;2022-09-02T17:36:17;2.00;;;1.40;;
11439;SDS011;5776;51.814;4.510;2022-09-02T17:38:43;6.60;;;1.15;;
11439;SDS011;5776;51.814;4.510;2022-09-02T17:41:10;2.70;;;1.00;;
11439;SDS011;5776;51.814;4.510;2022-09-02T17:43:55;3.20;;;1.42;;